createdAt,value
2024-03-08T00:02:34.461Z,15.63
2024-03-08T00:05:35.953Z,17.98
2024-03-08T00:08:37.405Z,15.38
2024-03-08T00:11:38.959Z,16.20
2024-03-08T00:14:40.438Z,17.80
2024-03-08T00:17:42.710Z,15.43
2024-03-08T00:20:45.971Z,12.15
2024-03-08T00:23:48.053Z,13.88
2024-03-08T00:26:49.554Z,15.50
2024-03-08T00:29:51.013Z,19.23
2024-03-08T00:32:52.490Z,16.45
2024-03-08T00:35:55.028Z,16.02
2024-03-08T00:38:56.777Z,16.77
2024-03-08T00:41:58.213Z,16.05
2024-03-08T00:45:00.037Z,15.30
2024-03-08T00:48:01.702Z,14.82
2024-03-08T00:51:03.419Z,15.05
2024-03-08T00:54:04.948Z,17.33
2024-03-08T00:57:07.781Z,16.90
2024-03-08T01:00:13.170Z,15.38
2024-03-08T01:03:14.881Z,19.98
2024-03-08T01:06:16.400Z,14.18
2024-03-08T01:09:18.545Z,18.25
2024-03-08T01:12:21.220Z,16.85
2024-03-08T01:15:22.891Z,16.52
2024-03-08T01:18:24.342Z,15.80
2024-03-08T01:21:25.888Z,17.60
2024-03-08T01:24:27.385Z,17.02
2024-03-08T01:27:28.800Z,21.17
2024-03-08T01:30:30.274Z,18.05
2024-03-08T01:33:32.480Z,16.10
2024-03-08T01:36:34.013Z,15.20
2024-03-08T01:39:35.417Z,13.68
2024-03-08T01:42:38.739Z,15.38
2024-03-08T01:45:40.264Z,19.83
2024-03-08T01:48:42.616Z,16.05
2024-03-08T01:51:44.165Z,17.17
2024-03-08T01:54:46.235Z,16.88
2024-03-08T01:57:47.765Z,16.95
2024-03-08T02:00:50.457Z,20.38
2024-03-08T02:03:52.117Z,17.65
2024-03-08T02:06:53.516Z,15.73
2024-03-08T02:09:54.995Z,22.55
2024-03-08T02:12:56.630Z,15.15
2024-03-08T02:16:01.340Z,15.63
2024-03-08T02:19:02.735Z,18.65
2024-03-08T02:22:05.513Z,16.40
2024-03-08T02:25:08.946Z,20.58
2024-03-08T02:28:12.781Z,18.08
2024-03-08T02:31:14.230Z,16.95
2024-03-08T02:34:15.743Z,14.60
2024-03-08T02:37:17.809Z,19.70
2024-03-08T02:40:19.208Z,15.77
2024-03-08T02:43:23.156Z,20.23
2024-03-08T02:46:24.659Z,17.20
2024-03-08T02:49:26.237Z,17.63
2024-03-08T02:52:27.730Z,17.30
2024-03-08T02:55:29.318Z,20.23
2024-03-08T02:58:30.752Z,20.98
2024-03-08T03:01:33.154Z,19.20
2024-03-08T03:04:35.770Z,17.52
2024-03-08T03:07:37.228Z,18.05
2024-03-08T03:10:38.815Z,18.73
2024-03-08T03:13:40.922Z,18.27
2024-03-08T03:16:44.614Z,20.90
2024-03-08T03:19:46.117Z,19.15
2024-03-08T03:22:49.437Z,17.85
2024-03-08T03:25:50.871Z,19.40
2024-03-08T03:28:52.789Z,17.88
2024-03-08T03:31:54.193Z,22.65
2024-03-08T03:34:55.620Z,16.15
2024-03-08T03:38:17.483Z,20.10
2024-03-08T03:41:18.953Z,19.40
2024-03-08T03:44:20.361Z,20.20
2024-03-08T03:47:22.164Z,22.98
2024-03-08T03:50:24.638Z,18.98
2024-03-08T03:53:27.018Z,19.77
2024-03-08T03:56:28.634Z,22.13
2024-03-08T03:59:30.488Z,17.98
2024-03-08T04:02:31.976Z,19.33
2024-03-08T04:05:33.507Z,20.92
2024-03-08T04:08:35.329Z,21.67
2024-03-08T04:11:36.882Z,22.67
2024-03-08T04:14:42.399Z,16.58
2024-03-08T04:17:44.056Z,18.77
2024-03-08T04:20:46.533Z,17.70
2024-03-08T04:23:48.026Z,21.13
2024-03-08T04:26:49.458Z,19.38
2024-03-08T04:29:50.901Z,19.83
2024-03-08T04:32:52.357Z,20.08
2024-03-08T04:35:54.297Z,20.13
2024-03-08T04:38:55.864Z,20.35
2024-03-08T04:42:04.076Z,23.70
2024-03-08T04:45:09.323Z,17.40
2024-03-08T04:48:11.023Z,19.55
2024-03-08T04:51:12.585Z,22.77
2024-03-08T04:54:14.105Z,18.98
2024-03-08T04:57:15.776Z,22.63
2024-03-08T05:00:18.016Z,15.00
2024-03-08T05:03:19.542Z,22.70
2024-03-08T05:06:21.998Z,21.92
2024-03-08T05:09:23.666Z,21.98
2024-03-08T05:12:25.207Z,20.23
2024-03-08T05:15:26.642Z,19.05
2024-03-08T05:18:33.368Z,19.00
2024-03-08T05:21:34.899Z,22.80
2024-03-08T05:24:37.124Z,22.70
2024-03-08T05:27:38.698Z,21.10
2024-03-08T05:30:40.232Z,18.90
2024-03-08T05:33:44.010Z,21.75
2024-03-08T05:36:46.019Z,19.67
2024-03-08T05:39:47.728Z,23.80
2024-03-08T05:42:49.196Z,21.63
2024-03-08T05:45:51.029Z,23.85
2024-03-08T05:48:52.609Z,25.77
2024-03-08T05:51:55.285Z,22.55
2024-03-08T05:54:56.803Z,22.50
2024-03-08T05:57:58.339Z,21.23
2024-03-08T06:01:00.307Z,22.42
2024-03-08T06:04:02.045Z,21.40
2024-03-08T06:07:04.405Z,20.40
2024-03-08T06:10:07.923Z,19.35
2024-03-08T06:13:09.476Z,21.48
2024-03-08T06:16:11.104Z,22.10
2024-03-08T06:19:13.129Z,17.83
2024-03-08T06:22:14.924Z,23.92
2024-03-08T06:25:16.838Z,25.52
2024-03-08T06:28:18.297Z,23.98
2024-03-08T06:31:20.905Z,26.92
2024-03-08T06:34:22.511Z,23.02
2024-03-08T06:37:24.923Z,20.63
2024-03-08T06:40:26.349Z,25.10
2024-03-08T06:43:34.056Z,22.35
2024-03-08T06:46:35.525Z,18.05
2024-03-08T06:49:36.985Z,21.98
2024-03-08T06:52:39.612Z,23.30
2024-03-08T06:55:41.401Z,21.98
2024-03-08T06:58:43.378Z,17.35
2024-03-08T07:01:44.860Z,24.42
2024-03-08T07:04:46.308Z,24.85
2024-03-08T07:07:50.742Z,24.23
2024-03-08T07:10:52.197Z,21.75
2024-03-08T07:13:55.144Z,23.80
2024-03-08T07:16:56.587Z,20.65
2024-03-08T07:20:00.476Z,23.75
2024-03-08T07:23:01.906Z,24.20
2024-03-08T07:26:03.387Z,24.02
2024-03-08T07:29:04.832Z,23.90
2024-03-08T07:32:26.481Z,20.40
2024-03-08T07:35:28.018Z,22.15
2024-03-08T07:38:30.626Z,21.90
2024-03-08T07:41:32.107Z,17.92
2024-03-08T07:44:34.724Z,27.73
2024-03-08T07:47:37.768Z,24.30
2024-03-08T07:50:40.973Z,23.17
2024-03-08T07:53:42.696Z,24.35
2024-03-08T07:56:44.301Z,25.63
2024-03-08T07:59:45.916Z,23.75
2024-03-08T08:02:47.354Z,19.30
2024-03-08T08:05:50.181Z,22.35
2024-03-08T08:08:51.724Z,19.92
2024-03-08T08:11:53.230Z,27.13
2024-03-08T08:14:54.642Z,20.83
2024-03-08T08:17:56.091Z,22.20
2024-03-08T08:20:57.589Z,21.35
2024-03-08T08:23:59.009Z,18.50
2024-03-08T08:27:00.563Z,24.92
2024-03-08T08:30:02.121Z,23.23
2024-03-08T08:33:03.918Z,20.70
2024-03-08T08:36:05.757Z,22.25
2024-03-08T08:39:13.502Z,17.45
2024-03-08T08:42:14.916Z,19.15
2024-03-08T08:45:19.389Z,17.23
2024-03-08T08:48:22.715Z,18.52
2024-03-08T08:51:24.292Z,15.52
2024-03-08T08:54:26.227Z,15.50
2024-03-08T08:57:29.184Z,16.10
2024-03-08T09:00:32.065Z,18.13
2024-03-08T09:03:35.822Z,15.85
2024-03-08T09:06:37.274Z,18.08
2024-03-08T09:09:39.558Z,18.50
2024-03-08T09:12:41.360Z,16.83
2024-03-08T09:15:42.799Z,16.83
2024-03-08T09:18:44.239Z,19.95
2024-03-08T09:21:45.757Z,17.15
2024-03-08T09:24:47.821Z,18.83
2024-03-08T09:27:50.392Z,15.20
2024-03-08T09:30:57.464Z,16.10
2024-03-08T09:34:01.948Z,17.98
2024-03-08T09:37:05.440Z,15.90
2024-03-08T09:40:10.731Z,17.75
2024-03-08T09:43:13.367Z,19.63
2024-03-08T09:46:16.499Z,21.50
2024-03-08T09:49:18.080Z,17.83
2024-03-08T09:52:19.780Z,14.50
2024-03-08T09:55:23.802Z,17.20
2024-03-08T09:58:34.461Z,16.33
2024-03-08T10:01:36.113Z,12.75
2024-03-08T10:04:37.592Z,17.77
2024-03-08T10:07:39.040Z,14.13
2024-03-08T10:10:40.671Z,16.20
2024-03-08T10:13:42.303Z,17.23
2024-03-08T10:16:44.030Z,15.20
2024-03-08T10:19:52.993Z,15.23
2024-03-08T10:23:03.232Z,17.02
2024-03-08T10:26:16.681Z,11.23
2024-03-08T10:29:19.936Z,13.10
2024-03-08T10:32:21.892Z,13.85
2024-03-08T10:35:23.912Z,13.13
2024-03-08T10:38:27.467Z,15.30
2024-03-08T10:41:33.827Z,12.63
2024-03-08T10:44:44.936Z,13.48
2024-03-08T10:47:51.983Z,13.88
2024-03-08T10:50:53.785Z,12.10
2024-03-08T10:53:57.972Z,12.80
2024-03-08T10:57:00.245Z,11.18
2024-03-08T11:00:04.564Z,11.88
2024-03-08T11:03:06.205Z,14.63
2024-03-08T11:06:39.802Z,11.80
2024-03-08T11:09:43.159Z,10.85
2024-03-08T11:12:44.631Z,10.23
2024-03-08T11:15:48.323Z,11.27
2024-03-08T11:18:49.771Z,9.73
2024-03-08T11:22:02.577Z,10.75
2024-03-08T11:25:10.932Z,11.05
2024-03-08T11:28:18.617Z,10.30
2024-03-08T11:31:25.641Z,13.02
2024-03-08T11:34:27.451Z,11.50
2024-03-08T11:37:29.506Z,17.27
2024-03-08T11:40:31.237Z,12.82
2024-03-08T11:43:32.720Z,11.45
2024-03-08T11:46:34.883Z,9.23
2024-03-08T11:49:36.499Z,8.88
2024-03-08T11:52:38.228Z,11.20
2024-03-08T11:55:40.393Z,11.10
2024-03-08T11:58:42.416Z,10.85
2024-03-08T12:01:44.967Z,9.07
2024-03-08T12:04:50.612Z,9.80
2024-03-08T12:07:59.925Z,8.85
2024-03-08T12:11:02.039Z,10.30
2024-03-08T12:14:04.598Z,8.82
2024-03-08T12:17:07.178Z,12.35
2024-03-08T12:20:18.876Z,9.35
2024-03-08T12:23:20.391Z,10.77
2024-03-08T12:26:27.073Z,8.57
2024-03-08T12:29:29.260Z,10.02
2024-03-08T12:32:30.849Z,9.20
2024-03-08T12:35:33.935Z,8.43
2024-03-08T12:38:37.226Z,9.52
2024-03-08T12:41:41.970Z,9.13
2024-03-08T12:44:44.474Z,11.15
2024-03-08T12:47:45.944Z,10.93
2024-03-08T12:50:48.961Z,10.25
2024-03-08T12:53:56.650Z,10.20
2024-03-08T12:56:59.562Z,10.70
2024-03-08T13:00:01.419Z,11.35
2024-03-08T13:03:03.952Z,11.32
2024-03-08T13:06:09.202Z,10.55
2024-03-08T13:09:10.882Z,7.20
2024-03-08T13:12:12.331Z,11.48
2024-03-08T13:15:21.195Z,9.98
2024-03-08T13:18:22.667Z,11.38
2024-03-08T13:21:25.472Z,10.05
2024-03-08T13:24:27.041Z,9.48
2024-03-08T13:27:29.465Z,7.95
2024-03-08T13:30:31.982Z,8.40
2024-03-08T13:33:37.811Z,10.40
2024-03-08T13:36:44.797Z,9.60
2024-03-08T13:39:46.292Z,9.07
2024-03-08T13:42:50.065Z,13.40
2024-03-08T13:45:51.644Z,8.82
2024-03-08T13:48:55.085Z,10.73
2024-03-08T13:51:56.622Z,8.63
2024-03-08T13:54:58.637Z,7.32
2024-03-08T13:58:00.904Z,7.88
2024-03-08T14:01:04.523Z,10.15
2024-03-08T14:04:06.031Z,7.95
2024-03-08T14:07:09.402Z,8.88
2024-03-08T14:10:10.855Z,6.60
2024-03-08T14:13:12.894Z,8.23
2024-03-08T14:16:14.477Z,7.95
2024-03-08T14:19:16.364Z,9.35
2024-03-08T14:22:17.887Z,8.90
2024-03-08T14:25:19.716Z,10.50
2024-03-08T14:28:21.923Z,8.38
2024-03-08T14:31:26.683Z,7.93
2024-03-08T14:34:30.227Z,7.72
2024-03-08T14:37:31.758Z,9.68
2024-03-08T14:40:33.397Z,6.40
2024-03-08T14:43:34.887Z,8.13
2024-03-08T14:46:36.663Z,7.40
2024-03-08T14:49:39.300Z,8.50
2024-03-08T14:52:41.172Z,7.68
2024-03-08T14:55:43.639Z,6.68
2024-03-08T14:58:46.084Z,7.40
2024-03-08T15:01:48.029Z,7.53
2024-03-08T15:04:58.549Z,10.90
2024-03-08T15:08:10.526Z,8.27
2024-03-08T15:11:12.332Z,8.23
2024-03-08T15:14:14.643Z,7.35
2024-03-08T15:17:22.061Z,11.40
2024-03-08T15:20:30.994Z,8.70
2024-03-08T15:23:37.066Z,9.60
2024-03-08T15:26:38.570Z,6.10
2024-03-08T15:29:40.268Z,8.38
2024-03-08T15:32:46.503Z,8.70
2024-03-08T15:35:51.481Z,9.57
2024-03-08T15:38:53.459Z,8.15
2024-03-08T15:41:56.404Z,7.93
2024-03-08T15:44:57.866Z,7.28
2024-03-08T15:47:59.456Z,7.82
2024-03-08T15:51:03.731Z,6.05
2024-03-08T15:54:05.544Z,7.17
2024-03-08T15:57:13.913Z,7.72
2024-03-08T16:00:34.912Z,8.55
2024-03-08T16:03:37.076Z,7.88
2024-03-08T16:06:41.118Z,7.78
2024-03-08T16:09:43.516Z,7.95
2024-03-08T16:12:44.933Z,5.97
2024-03-08T16:15:49.017Z,8.30
2024-03-08T16:18:52.500Z,8.52
2024-03-08T16:21:53.970Z,6.65
2024-03-08T16:24:57.034Z,10.20
2024-03-08T16:27:58.491Z,9.48
2024-03-08T16:30:59.946Z,8.77
2024-03-08T16:34:01.385Z,9.32
2024-03-08T16:37:03.391Z,9.18
2024-03-08T16:40:05.996Z,8.43
2024-03-08T16:43:12.607Z,7.63
2024-03-08T16:46:14.552Z,6.78
2024-03-08T16:49:16.588Z,7.45
2024-03-08T16:52:18.315Z,8.48
2024-03-08T16:55:21.203Z,8.52
2024-03-08T16:58:23.135Z,6.25
2024-03-08T17:01:24.677Z,10.13
2024-03-08T17:04:27.568Z,9.40
2024-03-08T17:07:31.325Z,9.63
2024-03-08T17:10:35.363Z,8.52
2024-03-08T17:13:37.355Z,9.65
2024-03-08T17:16:39.125Z,8.40
2024-03-08T17:19:41.046Z,5.63
2024-03-08T17:22:43.363Z,9.70
2024-03-08T17:25:47.341Z,8.50
2024-03-08T17:28:49.284Z,6.90
2024-03-08T17:31:50.991Z,9.43
2024-03-08T17:34:52.523Z,11.38
2024-03-08T17:37:59.120Z,9.32
2024-03-08T17:41:00.907Z,10.15
2024-03-08T17:44:02.465Z,12.38
2024-03-08T17:47:05.583Z,8.93
2024-03-08T17:50:12.544Z,8.20
2024-03-08T17:53:14.929Z,10.15
2024-03-08T17:56:16.564Z,11.77
2024-03-08T17:59:18.117Z,11.27
2024-03-08T18:02:20.300Z,11.23
2024-03-08T18:05:25.509Z,8.70
2024-03-08T18:11:28.378Z,13.30
2024-03-08T18:14:29.970Z,12.18
2024-03-08T18:17:32.022Z,14.43
2024-03-08T18:20:35.127Z,11.48
2024-03-08T18:23:36.691Z,12.82
2024-03-08T18:26:38.651Z,9.80
2024-03-08T18:29:41.063Z,11.73
2024-03-08T18:32:46.174Z,11.45
2024-03-08T18:35:48.602Z,11.68
2024-03-08T18:38:50.476Z,14.07
2024-03-08T18:41:51.910Z,15.40
2024-03-08T18:44:53.375Z,12.00
2024-03-08T18:47:58.920Z,13.27
2024-03-08T18:51:00.758Z,11.85
2024-03-08T18:54:04.423Z,11.48
2024-03-08T18:57:06.280Z,13.45
2024-03-08T19:00:21.958Z,12.40
2024-03-08T19:03:24.121Z,10.80
2024-03-08T19:06:31.891Z,10.35
2024-03-08T19:09:34.346Z,10.65
2024-03-08T19:12:35.748Z,10.52
2024-03-08T19:15:39.246Z,9.55
2024-03-08T19:18:41.976Z,9.73
2024-03-08T19:21:43.839Z,10.13
2024-03-08T19:24:45.382Z,13.48
2024-03-08T19:27:47.956Z,12.07
2024-03-08T19:30:51.242Z,9.02
2024-03-08T19:33:52.747Z,11.77
2024-03-08T19:36:54.685Z,15.65
2024-03-08T19:39:56.178Z,13.98
2024-03-08T19:43:00.076Z,12.85
2024-03-08T19:46:01.693Z,13.57
2024-03-08T19:49:04.934Z,12.25
2024-03-08T19:52:07.916Z,12.55
2024-03-08T19:55:11.196Z,12.27
2024-03-08T19:58:12.710Z,12.00
2024-03-08T20:01:16.248Z,12.57
2024-03-08T20:04:17.960Z,15.75
2024-03-08T20:07:19.482Z,13.15
2024-03-08T20:10:21.933Z,15.25
2024-03-08T20:13:23.511Z,9.75
2024-03-08T20:16:25.060Z,13.25
2024-03-08T20:19:26.723Z,15.23
2024-03-08T20:22:28.272Z,14.23
2024-03-08T20:25:33.064Z,10.13
2024-03-08T20:28:34.596Z,13.07
2024-03-08T20:31:36.139Z,13.52
2024-03-08T20:34:37.991Z,12.30
2024-03-08T20:37:42.733Z,14.55
2024-03-08T20:40:45.545Z,16.15
2024-03-08T20:43:47.061Z,10.95
2024-03-08T20:46:48.622Z,16.05
2024-03-08T20:49:51.308Z,11.13
2024-03-08T20:52:54.286Z,10.10
2024-03-08T20:55:56.051Z,12.70
2024-03-08T20:58:57.590Z,14.00
2024-03-08T21:02:00.167Z,13.40
2024-03-08T21:05:01.810Z,11.60
2024-03-08T21:08:07.005Z,14.95
2024-03-08T21:14:12.772Z,14.15
2024-03-08T21:17:14.246Z,12.80
2024-03-08T21:20:18.559Z,12.18
2024-03-08T21:23:20.839Z,13.73
2024-03-08T21:26:22.492Z,16.77
2024-03-08T21:29:24.183Z,12.38
2024-03-08T21:32:25.815Z,13.48
2024-03-08T21:35:27.612Z,10.20
2024-03-08T21:38:29.161Z,13.07
2024-03-08T21:41:30.742Z,14.55
2024-03-08T21:44:32.442Z,11.23
2024-03-08T21:47:36.690Z,8.55
2024-03-08T21:50:39.742Z,10.07
2024-03-08T21:53:41.731Z,9.02
2024-03-08T21:56:44.905Z,13.65
2024-03-08T21:59:46.521Z,9.88
2024-03-08T22:02:48.808Z,12.15
2024-03-08T22:08:52.877Z,12.30
2024-03-08T22:11:54.423Z,14.15
2024-03-08T22:14:55.905Z,13.05
2024-03-08T22:17:57.980Z,11.50
2024-03-08T22:21:00.630Z,13.48
2024-03-08T22:24:02.074Z,10.27
2024-03-08T22:27:03.872Z,13.27
2024-03-08T22:30:07.270Z,11.80
2024-03-08T22:33:09.699Z,13.18
2024-03-08T22:36:12.438Z,10.10
2024-03-08T22:39:14.992Z,11.73
2024-03-08T22:42:16.423Z,15.27
2024-03-08T22:45:17.981Z,12.10
2024-03-08T22:48:19.527Z,16.50
2024-03-08T22:51:26.430Z,10.27
2024-03-08T22:54:27.875Z,13.70
2024-03-08T22:57:29.303Z,11.48
2024-03-08T23:00:39.585Z,11.10
2024-03-08T23:03:43.146Z,10.93
2024-03-08T23:06:44.590Z,7.80
2024-03-08T23:09:46.183Z,13.75
2024-03-08T23:12:47.655Z,9.82
2024-03-08T23:15:49.119Z,9.35
2024-03-08T23:18:51.054Z,10.70
2024-03-08T23:21:52.570Z,11.65
2024-03-08T23:24:55.618Z,11.48
2024-03-08T23:27:58.609Z,11.73
2024-03-08T23:31:00.477Z,10.02
2024-03-08T23:34:02.485Z,11.20
2024-03-08T23:37:04.821Z,10.82
2024-03-08T23:40:09.448Z,12.43
2024-03-08T23:43:11.502Z,10.10
2024-03-08T23:46:12.940Z,12.88
2024-03-08T23:49:18.325Z,7.35
2024-03-08T23:52:19.869Z,10.18
2024-03-08T23:55:28.152Z,9.27
2024-03-08T23:58:29.935Z,9.55
